sensor_id;sensor_type;location;lat;lon;timestamp;temperature;humidity
61841;DHT22;47773;53.174;6.614;2023-08-31T00:02:06;12.80;99.90
61841;DHT22;47773;53.174;6.614;2023-08-31T00:04:32;12.80;99.90
61841;DHT22;47773;53.174;6.614;2023-08-31T00:06:58;12.90;99.90
61841;DHT22;47773;53.174;6.614;2023-08-31T00:09:24;12.90;99.90
61841;DHT22;47773;53.174;6.614;2023-08-31T00:11:50;12.90;99.90
61841;DHT22;47773;53.174;6.614;2023-08-31T00:14:16;12.80;99.90
61841;DHT22;47773;53.174;6.614;2023-08-31T00:16:43;12.80;99.90
61841;DHT22;47773;53.174;6.614;2023-08-31T00:19:11;12.80;99.90
61841;DHT22;47773;53.174;6.614;2023-08-31T00:21:37;12.80;99.90
61841;DHT22;47773;53.174;6.614;2023-08-31T00:24:03;12.80;99.90
61841;DHT22;47773;53.174;6.614;2023-08-31T00:26:29;12.80;99.90
61841;DHT22;47773;53.174;6.614;2023-08-31T00:28:57;12.80;99.90
61841;DHT22;47773;53.174;6.614;2023-08-31T00:31:23;12.80;99.90
61841;DHT22;47773;53.174;6.614;2023-08-31T00:33:49;12.80;99.90
61841;DHT22;47773;53.174;6.614;2023-08-31T00:36:15;12.80;99.90
61841;DHT22;47773;53.174;6.614;2023-08-31T00:38:43;12.80;99.90
61841;DHT22;47773;53.174;6.614;2023-08-31T00:41:09;12.80;99.90
61841;DHT22;47773;53.174;6.614;2023-08-31T00:43:34;12.80;99.90
61841;DHT22;47773;53.174;6.614;2023-08-31T00:46:00;12.80;99.90
61841;DHT22;47773;53.174;6.614;2023-08-31T00:48:26;12.80;99.90
61841;DHT22;47773;53.174;6.614;2023-08-31T00:50:52;12.80;99.90
61841;DHT22;47773;53.174;6.614;2023-08-31T00:53:18;12.80;99.90
61841;DHT22;47773;53.174;6.614;2023-08-31T00:55:47;12.70;99.90
61841;DHT22;47773;53.174;6.614;2023-08-31T00:58:13;12.70;99.90
61841;DHT22;47773;53.174;6.614;2023-08-31T01:03:50;12.70;99.90
61841;DHT22;47773;53.174;6.614;2023-08-31T01:09:02;12.70;99.90
61841;DHT22;47773;53.174;6.614;2023-08-31T01:14:24;12.70;99.90
61841;DHT22;47773;53.174;6.614;2023-08-31T01:16:53;12.70;99.90
61841;DHT22;47773;53.174;6.614;2023-08-31T01:21:59;12.70;99.90
61841;DHT22;47773;53.174;6.614;2023-08-31T01:24:25;12.60;99.90
61841;DHT22;47773;53.174;6.614;2023-08-31T01:26:52;12.60;99.90
61841;DHT22;47773;53.174;6.614;2023-08-31T01:29:18;12.60;99.90
61841;DHT22;47773;53.174;6.614;2023-08-31T01:31:44;12.60;99.90
61841;DHT22;47773;53.174;6.614;2023-08-31T01:34:10;12.60;99.90
61841;DHT22;47773;53.174;6.614;2023-08-31T01:36:38;12.50;99.90
61841;DHT22;47773;53.174;6.614;2023-08-31T01:39:30;12.50;99.90
61841;DHT22;47773;53.174;6.614;2023-08-31T01:42:03;12.50;99.90
61841;DHT22;47773;53.174;6.614;2023-08-31T01:44:32;12.50;99.90
61841;DHT22;47773;53.174;6.614;2023-08-31T01:47:03;12.50;99.90
61841;DHT22;47773;53.174;6.614;2023-08-31T01:49:36;12.50;99.90
61841;DHT22;47773;53.174;6.614;2023-08-31T01:52:02;12.40;99.90
61841;DHT22;47773;53.174;6.614;2023-08-31T01:54:28;12.40;99.90
61841;DHT22;47773;53.174;6.614;2023-08-31T01:56:54;12.40;99.90
61841;DHT22;47773;53.174;6.614;2023-08-31T01:59:19;12.40;99.90
61841;DHT22;47773;53.174;6.614;2023-08-31T02:01:45;12.40;99.90
61841;DHT22;47773;53.174;6.614;2023-08-31T02:04:11;12.30;99.90
61841;DHT22;47773;53.174;6.614;2023-08-31T02:06:36;12.30;99.90
61841;DHT22;47773;53.174;6.614;2023-08-31T02:09:02;12.20;99.90
61841;DHT22;47773;53.174;6.614;2023-08-31T02:11:28;12.20;99.90
61841;DHT22;47773;53.174;6.614;2023-08-31T02:13:53;12.20;99.90
61841;DHT22;47773;53.174;6.614;2023-08-31T02:16:19;12.20;99.90
61841;DHT22;47773;53.174;6.614;2023-08-31T02:18:45;12.10;99.90
61841;DHT22;47773;53.174;6.614;2023-08-31T02:21:10;12.10;99.90
61841;DHT22;47773;53.174;6.614;2023-08-31T02:23:36;12.10;99.90
61841;DHT22;47773;53.174;6.614;2023-08-31T02:26:01;12.10;99.90
61841;DHT22;47773;53.174;6.614;2023-08-31T02:28:27;12.10;99.90
61841;DHT22;47773;53.174;6.614;2023-08-31T02:31:00;12.10;99.90
61841;DHT22;47773;53.174;6.614;2023-08-31T02:33:26;12.10;99.90
61841;DHT22;47773;53.174;6.614;2023-08-31T02:35:53;12.10;99.90
61841;DHT22;47773;53.174;6.614;2023-08-31T02:38:19;12.10;99.90
61841;DHT22;47773;53.174;6.614;2023-08-31T02:40:48;12.10;99.90
61841;DHT22;47773;53.174;6.614;2023-08-31T02:43:14;12.10;99.90
61841;DHT22;47773;53.174;6.614;2023-08-31T02:45:40;12.10;99.90
61841;DHT22;47773;53.174;6.614;2023-08-31T02:48:09;12.10;99.90
61841;DHT22;47773;53.174;6.614;2023-08-31T02:50:35;12.00;99.90
61841;DHT22;47773;53.174;6.614;2023-08-31T02:53:01;12.00;99.90
61841;DHT22;47773;53.174;6.614;2023-08-31T02:55:27;12.00;99.90
61841;DHT22;47773;53.174;6.614;2023-08-31T02:57:53;12.00;99.90
61841;DHT22;47773;53.174;6.614;2023-08-31T03:00:19;12.00;99.90
61841;DHT22;47773;53.174;6.614;2023-08-31T03:02:48;12.00;99.90
61841;DHT22;47773;53.174;6.614;2023-08-31T03:05:18;12.00;99.90
61841;DHT22;47773;53.174;6.614;2023-08-31T03:07:43;12.00;99.90
61841;DHT22;47773;53.174;6.614;2023-08-31T03:10:09;11.90;99.90
61841;DHT22;47773;53.174;6.614;2023-08-31T03:12:36;11.90;99.90
61841;DHT22;47773;53.174;6.614;2023-08-31T03:15:01;11.90;99.90
61841;DHT22;47773;53.174;6.614;2023-08-31T03:17:28;11.90;99.90
61841;DHT22;47773;53.174;6.614;2023-08-31T03:19:53;11.90;99.90
61841;DHT22;47773;53.174;6.614;2023-08-31T03:22:19;11.90;99.90
61841;DHT22;47773;53.174;6.614;2023-08-31T03:24:45;11.90;99.90
61841;DHT22;47773;53.174;6.614;2023-08-31T03:27:10;11.90;99.90
61841;DHT22;47773;53.174;6.614;2023-08-31T03:29:36;11.90;99.90
61841;DHT22;47773;53.174;6.614;2023-08-31T03:32:02;11.90;99.90
61841;DHT22;47773;53.174;6.614;2023-08-31T03:34:31;11.90;99.90
61841;DHT22;47773;53.174;6.614;2023-08-31T03:37:01;11.90;99.90
61841;DHT22;47773;53.174;6.614;2023-08-31T03:39:27;12.00;99.90
61841;DHT22;47773;53.174;6.614;2023-08-31T03:41:52;11.90;99.90
61841;DHT22;47773;53.174;6.614;2023-08-31T03:44:18;12.00;99.90
61841;DHT22;47773;53.174;6.614;2023-08-31T03:46:43;12.00;99.90
61841;DHT22;47773;53.174;6.614;2023-08-31T03:49:09;12.00;99.90
61841;DHT22;47773;53.174;6.614;2023-08-31T03:51:35;12.00;99.90
61841;DHT22;47773;53.174;6.614;2023-08-31T03:54:00;11.90;99.90
61841;DHT22;47773;53.174;6.614;2023-08-31T03:56:26;12.00;99.90
61841;DHT22;47773;53.174;6.614;2023-08-31T03:58:53;11.90;99.90
61841;DHT22;47773;53.174;6.614;2023-08-31T04:01:18;11.90;99.90
61841;DHT22;47773;53.174;6.614;2023-08-31T04:03:44;11.90;99.90
61841;DHT22;47773;53.174;6.614;2023-08-31T04:06:10;11.90;99.90
61841;DHT22;47773;53.174;6.614;2023-08-31T04:08:36;11.80;99.90
61841;DHT22;47773;53.174;6.614;2023-08-31T04:11:01;11.80;99.90
61841;DHT22;47773;53.174;6.614;2023-08-31T04:13:28;11.80;99.90
61841;DHT22;47773;53.174;6.614;2023-08-31T04:15:54;11.80;99.90
61841;DHT22;47773;53.174;6.614;2023-08-31T04:18:20;11.80;99.90
61841;DHT22;47773;53.174;6.614;2023-08-31T04:20:52;11.80;99.90
61841;DHT22;47773;53.174;6.614;2023-08-31T04:23:21;11.90;99.90
61841;DHT22;47773;53.174;6.614;2023-08-31T04:25:47;11.80;99.90
61841;DHT22;47773;53.174;6.614;2023-08-31T04:28:13;11.80;99.90
61841;DHT22;47773;53.174;6.614;2023-08-31T04:30:40;11.90;99.90
61841;DHT22;47773;53.174;6.614;2023-08-31T04:33:06;11.90;99.90
61841;DHT22;47773;53.174;6.614;2023-08-31T04:35:33;11.90;99.90
61841;DHT22;47773;53.174;6.614;2023-08-31T04:37:58;11.90;99.90
61841;DHT22;47773;53.174;6.614;2023-08-31T04:40:24;11.90;99.90
61841;DHT22;47773;53.174;6.614;2023-08-31T04:42:51;11.80;99.90
61841;DHT22;47773;53.174;6.614;2023-08-31T04:45:16;11.80;99.90
61841;DHT22;47773;53.174;6.614;2023-08-31T04:47:42;11.80;99.90
61841;DHT22;47773;53.174;6.614;2023-08-31T04:50:08;11.70;99.90
61841;DHT22;47773;53.174;6.614;2023-08-31T04:52:34;11.70;99.90
61841;DHT22;47773;53.174;6.614;2023-08-31T04:55:01;11.80;99.90
61841;DHT22;47773;53.174;6.614;2023-08-31T04:57:29;11.80;99.90
61841;DHT22;47773;53.174;6.614;2023-08-31T04:59:55;11.80;99.90
61841;DHT22;47773;53.174;6.614;2023-08-31T05:02:20;11.80;99.90
61841;DHT22;47773;53.174;6.614;2023-08-31T05:04:46;11.70;99.90
61841;DHT22;47773;53.174;6.614;2023-08-31T05:07:12;11.70;99.90
61841;DHT22;47773;53.174;6.614;2023-08-31T05:09:37;11.70;99.90
61841;DHT22;47773;53.174;6.614;2023-08-31T05:12:03;11.70;99.90
61841;DHT22;47773;53.174;6.614;2023-08-31T05:14:29;11.70;99.90
61841;DHT22;47773;53.174;6.614;2023-08-31T05:16:56;11.70;99.90
61841;DHT22;47773;53.174;6.614;2023-08-31T05:19:21;11.70;99.90
61841;DHT22;47773;53.174;6.614;2023-08-31T05:21:47;11.70;99.90
61841;DHT22;47773;53.174;6.614;2023-08-31T05:24:13;11.70;99.90
61841;DHT22;47773;53.174;6.614;2023-08-31T05:26:39;11.70;99.90
61841;DHT22;47773;53.174;6.614;2023-08-31T05:29:05;11.70;99.90
61841;DHT22;47773;53.174;6.614;2023-08-31T05:31:31;11.70;99.90
61841;DHT22;47773;53.174;6.614;2023-08-31T05:33:57;11.70;99.90
61841;DHT22;47773;53.174;6.614;2023-08-31T05:36:23;11.80;99.90
61841;DHT22;47773;53.174;6.614;2023-08-31T05:38:51;11.80;99.90
61841;DHT22;47773;53.174;6.614;2023-08-31T05:41:17;11.90;99.90
61841;DHT22;47773;53.174;6.614;2023-08-31T05:43:42;11.80;99.90
61841;DHT22;47773;53.174;6.614;2023-08-31T05:46:08;11.90;99.90
61841;DHT22;47773;53.174;6.614;2023-08-31T05:48:35;11.90;99.90
61841;DHT22;47773;53.174;6.614;2023-08-31T05:51:02;12.10;99.90
61841;DHT22;47773;53.174;6.614;2023-08-31T05:53:29;12.10;99.90
61841;DHT22;47773;53.174;6.614;2023-08-31T05:55:56;12.20;99.90
61841;DHT22;47773;53.174;6.614;2023-08-31T05:58:30;12.30;99.90
61841;DHT22;47773;53.174;6.614;2023-08-31T06:00:55;12.30;99.90
61841;DHT22;47773;53.174;6.614;2023-08-31T06:03:21;12.40;99.90
61841;DHT22;47773;53.174;6.614;2023-08-31T06:05:47;12.60;99.90
61841;DHT22;47773;53.174;6.614;2023-08-31T06:08:13;12.60;99.90
61841;DHT22;47773;53.174;6.614;2023-08-31T06:10:39;12.80;99.90
61841;DHT22;47773;53.174;6.614;2023-08-31T06:13:04;12.90;99.90
61841;DHT22;47773;53.174;6.614;2023-08-31T06:15:30;13.10;99.90
61841;DHT22;47773;53.174;6.614;2023-08-31T06:17:56;13.20;99.90
61841;DHT22;47773;53.174;6.614;2023-08-31T06:20:21;13.50;99.90
61841;DHT22;47773;53.174;6.614;2023-08-31T06:22:48;13.70;99.90
61841;DHT22;47773;53.174;6.614;2023-08-31T06:25:13;14.00;99.90
61841;DHT22;47773;53.174;6.614;2023-08-31T06:27:42;14.20;99.90
61841;DHT22;47773;53.174;6.614;2023-08-31T06:30:10;14.50;99.90
61841;DHT22;47773;53.174;6.614;2023-08-31T06:32:46;14.50;99.90
61841;DHT22;47773;53.174;6.614;2023-08-31T06:35:13;14.30;99.90
61841;DHT22;47773;53.174;6.614;2023-08-31T06:37:40;14.20;99.90
61841;DHT22;47773;53.174;6.614;2023-08-31T06:40:07;14.40;99.90
61841;DHT22;47773;53.174;6.614;2023-08-31T06:42:36;14.70;99.90
61841;DHT22;47773;53.174;6.614;2023-08-31T06:45:04;15.00;99.90
61841;DHT22;47773;53.174;6.614;2023-08-31T06:47:31;15.40;99.90
61841;DHT22;47773;53.174;6.614;2023-08-31T06:49:56;15.80;99.90
61841;DHT22;47773;53.174;6.614;2023-08-31T06:52:24;16.20;99.90
61841;DHT22;47773;53.174;6.614;2023-08-31T06:54:50;16.40;99.90
61841;DHT22;47773;53.174;6.614;2023-08-31T06:57:15;16.60;99.90
61841;DHT22;47773;53.174;6.614;2023-08-31T06:59:41;16.80;99.90
61841;DHT22;47773;53.174;6.614;2023-08-31T07:02:07;16.90;99.90
61841;DHT22;47773;53.174;6.614;2023-08-31T07:04:32;17.00;99.90
61841;DHT22;47773;53.174;6.614;2023-08-31T07:06:58;17.10;99.90
61841;DHT22;47773;53.174;6.614;2023-08-31T07:09:24;17.10;99.90
61841;DHT22;47773;53.174;6.614;2023-08-31T07:11:49;17.30;99.90
61841;DHT22;47773;53.174;6.614;2023-08-31T07:14:15;17.40;99.90
61841;DHT22;47773;53.174;6.614;2023-08-31T07:16:41;17.40;99.90
61841;DHT22;47773;53.174;6.614;2023-08-31T07:19:06;17.40;99.90
61841;DHT22;47773;53.174;6.614;2023-08-31T07:21:32;17.40;99.90
61841;DHT22;47773;53.174;6.614;2023-08-31T07:23:57;17.30;99.90
61841;DHT22;47773;53.174;6.614;2023-08-31T07:26:23;17.20;99.90
61841;DHT22;47773;53.174;6.614;2023-08-31T07:28:49;17.00;99.90
61841;DHT22;47773;53.174;6.614;2023-08-31T07:31:14;16.90;99.90
61841;DHT22;47773;53.174;6.614;2023-08-31T07:33:42;16.90;99.90
61841;DHT22;47773;53.174;6.614;2023-08-31T07:36:07;16.90;99.90
61841;DHT22;47773;53.174;6.614;2023-08-31T07:38:33;16.80;99.90
61841;DHT22;47773;53.174;6.614;2023-08-31T07:41:00;16.80;99.90
61841;DHT22;47773;53.174;6.614;2023-08-31T07:43:26;16.70;99.90
61841;DHT22;47773;53.174;6.614;2023-08-31T07:45:52;16.50;99.90
61841;DHT22;47773;53.174;6.614;2023-08-31T07:48:18;16.60;99.90
61841;DHT22;47773;53.174;6.614;2023-08-31T07:50:44;16.60;99.90
61841;DHT22;47773;53.174;6.614;2023-08-31T07:53:11;16.60;99.90
61841;DHT22;47773;53.174;6.614;2023-08-31T07:55:37;16.50;99.90
61841;DHT22;47773;53.174;6.614;2023-08-31T07:58:03;16.50;99.90
61841;DHT22;47773;53.174;6.614;2023-08-31T08:00:28;16.50;99.90
61841;DHT22;47773;53.174;6.614;2023-08-31T08:02:54;16.40;99.90
61841;DHT22;47773;53.174;6.614;2023-08-31T08:05:20;16.40;99.90
61841;DHT22;47773;53.174;6.614;2023-08-31T08:07:45;16.40;99.90
61841;DHT22;47773;53.174;6.614;2023-08-31T08:10:12;16.40;99.90
61841;DHT22;47773;53.174;6.614;2023-08-31T08:12:41;16.40;99.90
61841;DHT22;47773;53.174;6.614;2023-08-31T08:15:12;16.40;99.90
61841;DHT22;47773;53.174;6.614;2023-08-31T08:17:38;16.30;99.90
61841;DHT22;47773;53.174;6.614;2023-08-31T08:20:06;16.40;99.90
61841;DHT22;47773;53.174;6.614;2023-08-31T08:22:32;16.40;99.90
61841;DHT22;47773;53.174;6.614;2023-08-31T08:24:57;16.40;99.90
61841;DHT22;47773;53.174;6.614;2023-08-31T08:27:23;16.50;99.90
61841;DHT22;47773;53.174;6.614;2023-08-31T08:29:49;16.60;99.90
61841;DHT22;47773;53.174;6.614;2023-08-31T08:32:15;16.70;99.90
61841;DHT22;47773;53.174;6.614;2023-08-31T08:34:40;16.80;99.90
61841;DHT22;47773;53.174;6.614;2023-08-31T08:37:06;16.90;99.90
61841;DHT22;47773;53.174;6.614;2023-08-31T08:39:32;17.00;99.90
61841;DHT22;47773;53.174;6.614;2023-08-31T08:41:58;17.10;99.90
61841;DHT22;47773;53.174;6.614;2023-08-31T08:44:32;17.10;99.90
61841;DHT22;47773;53.174;6.614;2023-08-31T08:46:59;17.00;99.90
61841;DHT22;47773;53.174;6.614;2023-08-31T08:49:26;17.10;99.90
61841;DHT22;47773;53.174;6.614;2023-08-31T08:51:52;17.40;99.90
61841;DHT22;47773;53.174;6.614;2023-08-31T08:54:18;17.50;99.90
61841;DHT22;47773;53.174;6.614;2023-08-31T08:56:45;17.70;99.90
61841;DHT22;47773;53.174;6.614;2023-08-31T08:59:11;17.80;99.90
61841;DHT22;47773;53.174;6.614;2023-08-31T09:01:39;18.10;99.90
61841;DHT22;47773;53.174;6.614;2023-08-31T09:04:05;18.20;99.90
61841;DHT22;47773;53.174;6.614;2023-08-31T09:06:32;18.50;99.90
61841;DHT22;47773;53.174;6.614;2023-08-31T09:08:58;18.70;99.90
61841;DHT22;47773;53.174;6.614;2023-08-31T09:11:24;18.90;99.90
61841;DHT22;47773;53.174;6.614;2023-08-31T09:13:51;18.90;99.90
61841;DHT22;47773;53.174;6.614;2023-08-31T09:16:28;18.60;99.90
61841;DHT22;47773;53.174;6.614;2023-08-31T09:18:55;18.20;99.90
61841;DHT22;47773;53.174;6.614;2023-08-31T09:21:21;17.70;99.90
61841;DHT22;47773;53.174;6.614;2023-08-31T09:23:59;17.40;99.90
61841;DHT22;47773;53.174;6.614;2023-08-31T09:26:25;17.10;99.90
61841;DHT22;47773;53.174;6.614;2023-08-31T09:28:50;16.90;99.90
61841;DHT22;47773;53.174;6.614;2023-08-31T09:31:17;16.60;99.90
61841;DHT22;47773;53.174;6.614;2023-08-31T09:33:50;16.50;99.90
61841;DHT22;47773;53.174;6.614;2023-08-31T09:36:17;16.30;99.90
61841;DHT22;47773;53.174;6.614;2023-08-31T09:38:43;16.20;99.90
61841;DHT22;47773;53.174;6.614;2023-08-31T09:41:09;16.60;99.90
61841;DHT22;47773;53.174;6.614;2023-08-31T09:43:35;16.90;99.90
61841;DHT22;47773;53.174;6.614;2023-08-31T09:46:03;17.20;99.90
61841;DHT22;47773;53.174;6.614;2023-08-31T09:48:30;17.60;99.90
61841;DHT22;47773;53.174;6.614;2023-08-31T09:50:56;18.00;99.90
61841;DHT22;47773;53.174;6.614;2023-08-31T09:53:24;18.30;99.90
61841;DHT22;47773;53.174;6.614;2023-08-31T09:55:51;18.70;99.90
61841;DHT22;47773;53.174;6.614;2023-08-31T09:58:21;18.90;99.90
61841;DHT22;47773;53.174;6.614;2023-08-31T10:00:49;19.20;99.90
61841;DHT22;47773;53.174;6.614;2023-08-31T10:03:15;19.20;99.90
61841;DHT22;47773;53.174;6.614;2023-08-31T10:05:44;19.20;99.90
61841;DHT22;47773;53.174;6.614;2023-08-31T10:08:11;19.20;99.90
61841;DHT22;47773;53.174;6.614;2023-08-31T10:10:37;19.30;99.90
61841;DHT22;47773;53.174;6.614;2023-08-31T10:13:07;19.30;99.90
61841;DHT22;47773;53.174;6.614;2023-08-31T10:15:35;19.00;99.90
61841;DHT22;47773;53.174;6.614;2023-08-31T10:18:05;18.60;99.90
61841;DHT22;47773;53.174;6.614;2023-08-31T10:20:33;18.30;99.90
61841;DHT22;47773;53.174;6.614;2023-08-31T10:23:06;17.90;99.90
61841;DHT22;47773;53.174;6.614;2023-08-31T10:28:26;17.10;99.90
61841;DHT22;47773;53.174;6.614;2023-08-31T10:31:06;16.90;99.90
61841;DHT22;47773;53.174;6.614;2023-08-31T10:33:40;16.70;99.90
61841;DHT22;47773;53.174;6.614;2023-08-31T10:38:42;17.40;99.90
61841;DHT22;47773;53.174;6.614;2023-08-31T10:43:57;18.20;99.90
61841;DHT22;47773;53.174;6.614;2023-08-31T10:46:33;18.50;99.90
61841;DHT22;47773;53.174;6.614;2023-08-31T10:49:13;18.80;99.90
61841;DHT22;47773;53.174;6.614;2023-08-31T10:52:23;19.10;99.90
61841;DHT22;47773;53.174;6.614;2023-08-31T10:54:54;19.40;99.90
61841;DHT22;47773;53.174;6.614;2023-08-31T10:57:29;19.70;99.90
61841;DHT22;47773;53.174;6.614;2023-08-31T10:59:56;19.50;99.90
61841;DHT22;47773;53.174;6.614;2023-08-31T11:02:35;19.00;99.90
61841;DHT22;47773;53.174;6.614;2023-08-31T11:05:11;18.70;99.90
61841;DHT22;47773;53.174;6.614;2023-08-31T11:07:42;18.30;99.90
61841;DHT22;47773;53.174;6.614;2023-08-31T11:10:12;18.10;99.90
61841;DHT22;47773;53.174;6.614;2023-08-31T11:12:39;17.80;99.90
61841;DHT22;47773;53.174;6.614;2023-08-31T11:15:05;17.60;99.90
61841;DHT22;47773;53.174;6.614;2023-08-31T11:17:31;17.50;99.90
61841;DHT22;47773;53.174;6.614;2023-08-31T11:19:58;17.50;99.90
61841;DHT22;47773;53.174;6.614;2023-08-31T11:22:24;17.60;99.90
61841;DHT22;47773;53.174;6.614;2023-08-31T11:24:50;18.10;99.90
61841;DHT22;47773;53.174;6.614;2023-08-31T11:27:19;18.50;99.90
61841;DHT22;47773;53.174;6.614;2023-08-31T11:29:46;18.70;99.90
61841;DHT22;47773;53.174;6.614;2023-08-31T11:32:12;18.60;99.90
61841;DHT22;47773;53.174;6.614;2023-08-31T11:34:41;18.30;99.90
61841;DHT22;47773;53.174;6.614;2023-08-31T11:37:09;18.20;99.90
61841;DHT22;47773;53.174;6.614;2023-08-31T11:39:35;18.10;99.90
61841;DHT22;47773;53.174;6.614;2023-08-31T11:42:00;17.90;99.90
61841;DHT22;47773;53.174;6.614;2023-08-31T11:44:27;17.80;99.90
61841;DHT22;47773;53.174;6.614;2023-08-31T11:46:53;17.60;99.90
61841;DHT22;47773;53.174;6.614;2023-08-31T11:49:19;17.40;99.90
61841;DHT22;47773;53.174;6.614;2023-08-31T11:51:46;17.30;99.90
61841;DHT22;47773;53.174;6.614;2023-08-31T11:54:12;17.30;99.90
61841;DHT22;47773;53.174;6.614;2023-08-31T11:56:44;17.40;99.90
61841;DHT22;47773;53.174;6.614;2023-08-31T11:59:16;17.90;99.90
61841;DHT22;47773;53.174;6.614;2023-08-31T12:01:42;18.30;99.90
61841;DHT22;47773;53.174;6.614;2023-08-31T12:04:21;18.40;99.90
61841;DHT22;47773;53.174;6.614;2023-08-31T12:07:01;18.30;99.90
61841;DHT22;47773;53.174;6.614;2023-08-31T12:09:29;18.20;99.90
61841;DHT22;47773;53.174;6.614;2023-08-31T12:11:54;18.10;99.90
61841;DHT22;47773;53.174;6.614;2023-08-31T12:14:24;18.10;99.90
61841;DHT22;47773;53.174;6.614;2023-08-31T12:16:51;18.00;99.90
61841;DHT22;47773;53.174;6.614;2023-08-31T12:19:17;18.00;99.90
61841;DHT22;47773;53.174;6.614;2023-08-31T12:21:45;18.20;99.90
61841;DHT22;47773;53.174;6.614;2023-08-31T12:24:12;18.60;99.90
61841;DHT22;47773;53.174;6.614;2023-08-31T12:26:38;18.90;99.90
61841;DHT22;47773;53.174;6.614;2023-08-31T12:29:04;19.10;99.90
61841;DHT22;47773;53.174;6.614;2023-08-31T12:31:33;19.40;99.90
61841;DHT22;47773;53.174;6.614;2023-08-31T12:33:59;19.40;99.90
61841;DHT22;47773;53.174;6.614;2023-08-31T12:36:25;19.20;99.90
61841;DHT22;47773;53.174;6.614;2023-08-31T12:38:51;19.00;99.90
61841;DHT22;47773;53.174;6.614;2023-08-31T12:41:17;18.90;99.90
61841;DHT22;47773;53.174;6.614;2023-08-31T12:43:45;18.80;99.90
61841;DHT22;47773;53.174;6.614;2023-08-31T12:46:10;18.70;99.90
61841;DHT22;47773;53.174;6.614;2023-08-31T12:48:39;18.60;99.90
61841;DHT22;47773;53.174;6.614;2023-08-31T12:51:04;18.40;99.90
61841;DHT22;47773;53.174;6.614;2023-08-31T12:53:30;18.20;99.90
61841;DHT22;47773;53.174;6.614;2023-08-31T12:55:56;18.10;99.90
61841;DHT22;47773;53.174;6.614;2023-08-31T12:58:21;18.10;99.90
61841;DHT22;47773;53.174;6.614;2023-08-31T13:00:48;18.30;99.90
61841;DHT22;47773;53.174;6.614;2023-08-31T13:03:15;18.50;99.90
61841;DHT22;47773;53.174;6.614;2023-08-31T13:05:41;18.70;99.90
61841;DHT22;47773;53.174;6.614;2023-08-31T13:08:08;18.90;99.90
61841;DHT22;47773;53.174;6.614;2023-08-31T13:10:34;18.90;99.90
61841;DHT22;47773;53.174;6.614;2023-08-31T13:13:00;18.80;99.90
61841;DHT22;47773;53.174;6.614;2023-08-31T13:15:26;18.60;99.90
61841;DHT22;47773;53.174;6.614;2023-08-31T13:17:51;18.40;99.90
61841;DHT22;47773;53.174;6.614;2023-08-31T13:20:17;18.30;99.90
61841;DHT22;47773;53.174;6.614;2023-08-31T13:22:43;18.20;99.90
61841;DHT22;47773;53.174;6.614;2023-08-31T13:25:08;18.30;99.90
61841;DHT22;47773;53.174;6.614;2023-08-31T13:27:36;18.30;99.90
61841;DHT22;47773;53.174;6.614;2023-08-31T13:30:03;18.20;99.90
61841;DHT22;47773;53.174;6.614;2023-08-31T13:32:34;18.20;99.90
61841;DHT22;47773;53.174;6.614;2023-08-31T13:35:00;18.20;99.90
61841;DHT22;47773;53.174;6.614;2023-08-31T13:37:26;18.20;99.90
61841;DHT22;47773;53.174;6.614;2023-08-31T13:39:52;18.20;99.90
61841;DHT22;47773;53.174;6.614;2023-08-31T13:42:20;18.30;99.90
61841;DHT22;47773;53.174;6.614;2023-08-31T13:44:46;18.40;99.90
61841;DHT22;47773;53.174;6.614;2023-08-31T13:47:12;18.50;99.90
61841;DHT22;47773;53.174;6.614;2023-08-31T13:49:37;18.60;99.90
61841;DHT22;47773;53.174;6.614;2023-08-31T13:52:03;18.80;99.90
61841;DHT22;47773;53.174;6.614;2023-08-31T13:54:31;18.90;99.90
61841;DHT22;47773;53.174;6.614;2023-08-31T13:56:57;18.80;99.90
61841;DHT22;47773;53.174;6.614;2023-08-31T13:59:22;18.90;99.90
61841;DHT22;47773;53.174;6.614;2023-08-31T14:01:48;18.90;99.90
61841;DHT22;47773;53.174;6.614;2023-08-31T14:04:14;18.80;99.90
61841;DHT22;47773;53.174;6.614;2023-08-31T14:06:39;18.80;99.90
61841;DHT22;47773;53.174;6.614;2023-08-31T14:09:05;18.70;99.90
61841;DHT22;47773;53.174;6.614;2023-08-31T14:11:30;18.80;99.90
61841;DHT22;47773;53.174;6.614;2023-08-31T14:14:06;18.80;99.90
61841;DHT22;47773;53.174;6.614;2023-08-31T14:16:36;18.80;99.90
61841;DHT22;47773;53.174;6.614;2023-08-31T14:19:05;18.80;99.90
61841;DHT22;47773;53.174;6.614;2023-08-31T14:21:31;18.80;99.90
61841;DHT22;47773;53.174;6.614;2023-08-31T14:23:57;19.00;99.90
61841;DHT22;47773;53.174;6.614;2023-08-31T14:26:23;19.10;99.90
61841;DHT22;47773;53.174;6.614;2023-08-31T14:28:52;19.20;99.90
61841;DHT22;47773;53.174;6.614;2023-08-31T14:31:19;19.30;99.90
61841;DHT22;47773;53.174;6.614;2023-08-31T14:33:45;19.40;99.90
61841;DHT22;47773;53.174;6.614;2023-08-31T14:36:13;19.50;99.90
61841;DHT22;47773;53.174;6.614;2023-08-31T14:38:39;19.30;99.90
61841;DHT22;47773;53.174;6.614;2023-08-31T14:41:04;19.20;99.90
61841;DHT22;47773;53.174;6.614;2023-08-31T14:43:32;19.20;99.90
61841;DHT22;47773;53.174;6.614;2023-08-31T14:45:58;19.00;99.90
61841;DHT22;47773;53.174;6.614;2023-08-31T14:48:28;18.80;99.90
61841;DHT22;47773;53.174;6.614;2023-08-31T14:50:54;18.60;99.90
61841;DHT22;47773;53.174;6.614;2023-08-31T14:53:20;18.60;99.90
61841;DHT22;47773;53.174;6.614;2023-08-31T14:55:51;18.60;99.90
61841;DHT22;47773;53.174;6.614;2023-08-31T14:58:18;18.60;99.90
61841;DHT22;47773;53.174;6.614;2023-08-31T15:00:44;18.60;99.90
61841;DHT22;47773;53.174;6.614;2023-08-31T15:03:10;18.60;99.90
61841;DHT22;47773;53.174;6.614;2023-08-31T15:05:36;18.60;99.90
61841;DHT22;47773;53.174;6.614;2023-08-31T15:08:04;18.50;99.90
61841;DHT22;47773;53.174;6.614;2023-08-31T15:10:30;18.30;99.90
61841;DHT22;47773;53.174;6.614;2023-08-31T15:12:55;18.20;99.90
61841;DHT22;47773;53.174;6.614;2023-08-31T15:15:28;18.10;99.90
61841;DHT22;47773;53.174;6.614;2023-08-31T15:17:53;18.00;99.90
61841;DHT22;47773;53.174;6.614;2023-08-31T15:20:19;18.00;99.90
61841;DHT22;47773;53.174;6.614;2023-08-31T15:22:45;17.90;99.90
61841;DHT22;47773;53.174;6.614;2023-08-31T15:25:11;17.90;99.90
61841;DHT22;47773;53.174;6.614;2023-08-31T15:27:36;17.90;99.90
61841;DHT22;47773;53.174;6.614;2023-08-31T15:30:04;18.00;99.90
61841;DHT22;47773;53.174;6.614;2023-08-31T15:32:32;18.00;99.90
61841;DHT22;47773;53.174;6.614;2023-08-31T15:34:58;18.00;99.90
61841;DHT22;47773;53.174;6.614;2023-08-31T15:37:24;18.00;99.90
61841;DHT22;47773;53.174;6.614;2023-08-31T15:39:50;18.00;99.90
61841;DHT22;47773;53.174;6.614;2023-08-31T15:42:16;18.00;99.90
61841;DHT22;47773;53.174;6.614;2023-08-31T15:44:42;18.00;99.90
61841;DHT22;47773;53.174;6.614;2023-08-31T15:47:09;18.00;99.90
61841;DHT22;47773;53.174;6.614;2023-08-31T15:49:35;18.00;99.90